Time;durP1;ratioP1;P1;durP2;ratioP2;P2;SDS_P1;SDS_P2;PMS_P1;PMS_P2;Temp;Humidity;BMP_temperature;BMP_pressure;BME280_temperature;BME280_humidity;BME280_pressure;Samples;Min_cycle;Max_cycle;Signal;HPM_P1;HPM_P2
2022/11/14 00:00:51;;;;;;;;;;;7.70;56.10;;;;;;5051807;28;19970;-88
2022/11/14 00:03:17;;;;;;;;;;;7.70;55.90;;;;;;5053970;28;19916;-88
2022/11/14 00:05:43;;;;;;;;;;;7.60;55.80;;;;;;5053830;28;19917;-87
2022/11/14 00:08:13;;;;;;;;;;;7.60;55.70;;;;;;5052654;28;19920;-85
2022/11/14 00:10:38;;;;;;;;;;;7.50;55.80;;;;;;5058934;28;19916;-87
2022/11/14 00:13:04;;;;;;;;;;;7.50;55.90;;;;;;5072604;28;19908;-88
2022/11/14 00:15:29;;;;;;;;;;;7.40;55.80;;;;;;5073191;28;19939;-89
2022/11/14 00:17:55;;;;;;;;;;;7.40;55.70;;;;;;5071653;28;19909;-88
2022/11/14 00:20:21;;;;;;;;;;;7.30;55.60;;;;;;5071524;28;19999;-89
2022/11/14 00:22:46;;;;;;;;;;;7.30;55.70;;;;;;5054308;28;19975;-89
2022/11/14 00:25:12;;;;;;;;;;;7.20;55.90;;;;;;5060455;28;20469;-89
2022/11/14 00:27:37;;;;;;;;;;;7.20;56.40;;;;;;5054581;28;19923;-85
2022/11/14 00:30:03;;;;;;;;;;;7.20;56.70;;;;;;5059090;28;19917;-88
2022/11/14 00:32:29;;;;;;;;;;;7.20;57.00;;;;;;5064324;28;19928;-85
2022/11/14 00:34:55;;;;;;;;;;;7.30;57.40;;;;;;5064083;28;19948;-87
2022/11/14 00:37:20;;;;;;;;;;;7.30;57.70;;;;;;5057975;28;19960;-88
2022/11/14 00:39:46;;;;;;;;;;;7.40;58.20;;;;;;5063559;28;19921;-87
2022/11/14 00:42:11;;;;;;;;;;;7.50;58.40;;;;;;5057512;28;19912;-85
2022/11/14 00:44:37;;;;;;;;;;;7.50;58.70;;;;;;5066121;28;19916;-88
2022/11/14 00:47:02;;;;;;;;;;;7.50;58.80;;;;;;5051427;28;19915;-85
2022/11/14 00:49:28;;;;;;;;;;;7.60;58.90;;;;;;5071061;28;19915;-86
2022/11/14 00:51:53;;;;;;;;;;;7.70;58.80;;;;;;5072226;28;19976;-87
2022/11/14 00:54:19;;;;;;;;;;;7.70;58.80;;;;;;5073414;28;19908;-85
2022/11/14 00:56:44;;;;;;;;;;;7.70;58.80;;;;;;5070599;28;19920;-87
2022/11/14 00:59:10;;;;;;;;;;;7.80;58.80;;;;;;5070709;28;19913;-88
2022/11/14 01:01:35;;;;;;;;;;;7.80;58.80;;;;;;5071053;28;20596;-87
2022/11/14 01:04:01;;;;;;;;;;;7.80;58.80;;;;;;5063467;28;20264;-85
2022/11/14 01:06:26;;;;;;;;;;;7.80;58.90;;;;;;5061446;28;19970;-87
2022/11/14 01:08:52;;;;;;;;;;;7.80;58.70;;;;;;5057535;28;19920;-88
2022/11/14 01:11:19;;;;;;;;;;;7.80;58.60;;;;;;5055906;28;20268;-85
2022/11/14 01:13:44;;;;;;;;;;;7.80;58.50;;;;;;5055701;28;19912;-87
2022/11/14 01:16:10;;;;;;;;;;;7.80;58.30;;;;;;5067763;28;20276;-87
2022/11/14 01:18:36;;;;;;;;;;;7.80;58.20;;;;;;5054478;28;20392;-88
2022/11/14 01:21:05;;;;;;;;;;;7.80;58.40;;;;;;5060959;28;19966;-86
2022/11/14 01:23:31;;;;;;;;;;;7.80;58.40;;;;;;5051620;28;20484;-87
2022/11/14 01:26:05;;;;;;;;;;;7.80;58.50;;;;;;5056201;28;19997;-86
2022/11/14 01:28:31;;;;;;;;;;;7.80;58.60;;;;;;5061379;28;20470;-86
2022/11/14 01:31:05;;;;;;;;;;;7.80;58.60;;;;;;5063098;28;19923;-85
2022/11/14 01:33:31;;;;;;;;;;;7.80;58.50;;;;;;5068750;28;19951;-86
2022/11/14 01:35:58;;;;;;;;;;;7.80;58.60;;;;;;5065885;28;19952;-86
2022/11/14 01:38:23;;;;;;;;;;;7.80;58.70;;;;;;5057470;28;20261;-87
2022/11/14 01:40:49;;;;;;;;;;;7.80;58.70;;;;;;5065470;28;20290;-87
2022/11/14 01:43:17;;;;;;;;;;;7.80;58.90;;;;;;5060029;28;19912;-87
2022/11/14 01:45:46;;;;;;;;;;;7.90;59.10;;;;;;5050207;28;20368;-88
2022/11/14 01:48:19;;;;;;;;;;;7.90;59.10;;;;;;5058800;28;19912;-86
2022/11/14 01:50:45;;;;;;;;;;;7.90;59.10;;;;;;5057363;28;19917;-85
2022/11/14 01:53:10;;;;;;;;;;;7.90;59.20;;;;;;5062068;28;19916;-86
2022/11/14 01:55:36;;;;;;;;;;;8.00;59.20;;;;;;5050102;28;19975;-86
2022/11/14 01:58:02;;;;;;;;;;;7.90;59.10;;;;;;5063935;28;19913;-86
2022/11/14 02:00:27;;;;;;;;;;;8.00;59.30;;;;;;5062787;28;19944;-86
2022/11/14 02:02:53;;;;;;;;;;;8.00;59.60;;;;;;5057927;28;19912;-87
2022/11/14 02:05:19;;;;;;;;;;;8.00;59.70;;;;;;5059809;28;20279;-88
2022/11/14 02:07:44;;;;;;;;;;;8.10;59.60;;;;;;5052195;28;19913;-87
2022/11/14 02:10:15;;;;;;;;;;;8.10;59.50;;;;;;5068511;28;19921;-88
2022/11/14 02:12:40;;;;;;;;;;;8.10;59.40;;;;;;5063454;28;19921;-86
2022/11/14 02:15:06;;;;;;;;;;;8.10;59.30;;;;;;5063801;28;19931;-87
2022/11/14 02:17:32;;;;;;;;;;;8.10;59.30;;;;;;5057979;28;20391;-87
2022/11/14 02:20:05;;;;;;;;;;;8.10;59.40;;;;;;5053412;28;19917;-88
2022/11/14 02:22:31;;;;;;;;;;;8.10;59.40;;;;;;5060131;28;19920;-87
2022/11/14 02:24:56;;;;;;;;;;;8.10;59.40;;;;;;5058414;28;19966;-88
2022/11/14 02:27:22;;;;;;;;;;;8.10;59.50;;;;;;5072758;28;19909;-88
2022/11/14 02:29:47;;;;;;;;;;;8.10;59.30;;;;;;5067929;28;19917;-87
2022/11/14 02:32:13;;;;;;;;;;;8.10;59.50;;;;;;5063473;28;19961;-88
2022/11/14 02:34:38;;;;;;;;;;;8.10;59.60;;;;;;5064894;28;19917;-86
2022/11/14 02:37:04;;;;;;;;;;;8.10;59.70;;;;;;5065303;28;19924;-85
2022/11/14 02:39:30;;;;;;;;;;;8.20;59.80;;;;;;5056905;28;19916;-87
2022/11/14 02:41:55;;;;;;;;;;;8.20;59.90;;;;;;5065660;28;20420;-87
2022/11/14 02:44:21;;;;;;;;;;;8.20;59.70;;;;;;5063115;28;20005;-87
2022/11/14 02:46:46;;;;;;;;;;;8.20;59.90;;;;;;5060332;28;19920;-87
2022/11/14 02:49:12;;;;;;;;;;;8.20;60.20;;;;;;5063352;28;20291;-86
2022/11/14 02:51:37;;;;;;;;;;;8.20;60.20;;;;;;5063154;28;19960;-87
2022/11/14 02:54:03;;;;;;;;;;;8.20;59.80;;;;;;5066900;28;19919;-85
2022/11/14 02:56:28;;;;;;;;;;;8.20;59.50;;;;;;5069928;28;19941;-87
2022/11/14 02:58:54;;;;;;;;;;;8.20;59.30;;;;;;5065908;28;19919;-87
2022/11/14 03:01:19;;;;;;;;;;;8.20;59.10;;;;;;5064129;28;19925;-87
2022/11/14 03:03:45;;;;;;;;;;;8.20;59.40;;;;;;5068527;28;19912;-87
2022/11/14 03:06:10;;;;;;;;;;;8.20;59.30;;;;;;5064604;28;19923;-87
2022/11/14 03:08:36;;;;;;;;;;;8.20;59.30;;;;;;5057893;28;19966;-87
2022/11/14 03:11:08;;;;;;;;;;;8.10;59.30;;;;;;5061375;28;19923;-85
2022/11/14 03:13:34;;;;;;;;;;;8.10;59.20;;;;;;5058044;28;19913;-87
2022/11/14 03:16:07;;;;;;;;;;;8.10;59.00;;;;;;5068070;28;19928;-87
2022/11/14 03:18:32;;;;;;;;;;;8.10;58.90;;;;;;5062272;28;19958;-87
2022/11/14 03:21:03;;;;;;;;;;;8.00;59.00;;;;;;5061799;28;20348;-86
2022/11/14 03:23:29;;;;;;;;;;;8.00;59.20;;;;;;5068885;28;19956;-88
2022/11/14 03:25:57;;;;;;;;;;;8.00;59.50;;;;;;5058642;28;20319;-86
2022/11/14 03:28:23;;;;;;;;;;;8.00;59.50;;;;;;5064000;28;19944;-87
2022/11/14 03:30:48;;;;;;;;;;;8.00;59.80;;;;;;5059701;28;19947;-88
2022/11/14 03:33:14;;;;;;;;;;;8.00;59.90;;;;;;5057308;28;19917;-86
2022/11/14 03:35:43;;;;;;;;;;;8.10;60.10;;;;;;5056073;28;19937;-88
2022/11/14 03:38:08;;;;;;;;;;;8.10;60.20;;;;;;5069469;28;20386;-87
2022/11/14 03:40:34;;;;;;;;;;;8.10;60.40;;;;;;5068064;28;19917;-86
2022/11/14 03:42:59;;;;;;;;;;;8.20;60.30;;;;;;5051849;28;20326;-86
2022/11/14 03:45:25;;;;;;;;;;;8.20;60.50;;;;;;5052205;28;19917;-87
2022/11/14 03:47:53;;;;;;;;;;;8.20;60.20;;;;;;5053154;28;19991;-87
2022/11/14 03:50:18;;;;;;;;;;;8.20;60.40;;;;;;5053114;28;20357;-87
2022/11/14 03:52:44;;;;;;;;;;;8.30;60.40;;;;;;5052052;28;19909;-87
2022/11/14 03:55:09;;;;;;;;;;;8.30;60.40;;;;;;5052232;28;19968;-87
2022/11/14 03:57:35;;;;;;;;;;;8.30;60.50;;;;;;5053279;28;19908;-87
2022/11/14 04:00:00;;;;;;;;;;;8.30;60.10;;;;;;5051884;28;20360;-87
2022/11/14 04:02:26;;;;;;;;;;;8.30;60.00;;;;;;5052090;28;19948;-84
2022/11/14 04:04:51;;;;;;;;;;;8.30;59.80;;;;;;5066683;28;20052;-86
2022/11/14 04:07:17;;;;;;;;;;;8.30;59.80;;;;;;5064213;28;19952;-84
2022/11/14 04:09:43;;;;;;;;;;;8.30;59.70;;;;;;5059350;28;19917;-85
2022/11/14 04:12:09;;;;;;;;;;;8.20;59.70;;;;;;5067127;28;19912;-85
2022/11/14 04:14:34;;;;;;;;;;;8.20;59.50;;;;;;5060855;28;19917;-85
2022/11/14 04:17:00;;;;;;;;;;;8.20;59.60;;;;;;5052706;28;19932;-84
2022/11/14 04:19:25;;;;;;;;;;;8.20;59.60;;;;;;5065537;28;19913;-86
2022/11/14 04:21:51;;;;;;;;;;;8.20;59.40;;;;;;5063205;28;19913;-87
2022/11/14 04:24:16;;;;;;;;;;;8.20;59.50;;;;;;5061594;28;20292;-87
2022/11/14 04:26:42;;;;;;;;;;;8.10;59.50;;;;;;5061087;28;20299;-85
2022/11/14 04:29:07;;;;;;;;;;;8.20;59.70;;;;;;5061450;28;19966;-85
2022/11/14 04:31:33;;;;;;;;;;;8.10;59.70;;;;;;5051840;28;19935;-84
2022/11/14 04:33:58;;;;;;;;;;;8.20;59.80;;;;;;5064658;28;19940;-87
2022/11/14 04:36:24;;;;;;;;;;;8.10;60.00;;;;;;5068879;28;19933;-87
2022/11/14 04:38:49;;;;;;;;;;;8.10;59.80;;;;;;5066165;28;19966;-86
2022/11/14 04:41:15;;;;;;;;;;;8.10;59.40;;;;;;5051324;28;20019;-85
2022/11/14 04:43:40;;;;;;;;;;;8.10;58.90;;;;;;5070449;28;20438;-83
2022/11/14 04:46:06;;;;;;;;;;;8.00;58.70;;;;;;5055024;28;19913;-85
2022/11/14 04:48:31;;;;;;;;;;;8.00;58.70;;;;;;5062301;28;20436;-87
2022/11/14 04:50:57;;;;;;;;;;;7.90;58.70;;;;;;5070361;28;19912;-86
2022/11/14 04:53:22;;;;;;;;;;;7.90;58.80;;;;;;5052537;28;19920;-86
2022/11/14 04:55:48;;;;;;;;;;;7.80;58.70;;;;;;5052509;28;20399;-86
2022/11/14 04:58:13;;;;;;;;;;;7.80;58.70;;;;;;5051059;28;19909;-85
2022/11/14 05:00:39;;;;;;;;;;;7.80;58.50;;;;;;5063318;28;19920;-85
2022/11/14 05:03:04;;;;;;;;;;;7.70;58.40;;;;;;5062563;28;20376;-86
2022/11/14 05:05:30;;;;;;;;;;;7.70;58.50;;;;;;5067130;28;20394;-86
2022/11/14 05:07:56;;;;;;;;;;;7.60;58.60;;;;;;5063211;28;19913;-87
2022/11/14 05:10:21;;;;;;;;;;;7.60;58.60;;;;;;5058301;28;19943;-87
2022/11/14 05:12:47;;;;;;;;;;;7.50;58.50;;;;;;5060050;28;20031;-87
2022/11/14 05:15:12;;;;;;;;;;;7.50;58.40;;;;;;5058917;28;20012;-87
2022/11/14 05:17:38;;;;;;;;;;;7.50;58.20;;;;;;5061720;28;19978;-85
2022/11/14 05:20:03;;;;;;;;;;;7.40;58.00;;;;;;5055787;28;19936;-85
2022/11/14 05:22:29;;;;;;;;;;;7.30;58.00;;;;;;5062748;28;19921;-86
2022/11/14 05:24:54;;;;;;;;;;;7.30;58.30;;;;;;5050509;28;19917;-87
2022/11/14 05:27:20;;;;;;;;;;;7.30;58.70;;;;;;5059781;28;19927;-85
2022/11/14 05:29:45;;;;;;;;;;;7.30;59.00;;;;;;5053186;28;19967;-86
2022/11/14 05:32:11;;;;;;;;;;;7.30;59.40;;;;;;5059494;28;20371;-86
2022/11/14 05:34:36;;;;;;;;;;;7.30;59.80;;;;;;5054900;28;20008;-87
2022/11/14 05:37:02;;;;;;;;;;;7.30;59.90;;;;;;5053236;28;19974;-87
2022/11/14 05:39:28;;;;;;;;;;;7.40;60.00;;;;;;5058727;28;19913;-86
2022/11/14 05:41:55;;;;;;;;;;;7.40;60.00;;;;;;5057796;28;22942;-85
2022/11/14 05:44:21;;;;;;;;;;;7.50;60.30;;;;;;5053288;28;19925;-87
2022/11/14 05:46:46;;;;;;;;;;;7.50;60.60;;;;;;5055690;28;19952;-85
2022/11/14 05:49:12;;;;;;;;;;;7.60;60.90;;;;;;5056109;28;20421;-87
2022/11/14 05:51:37;;;;;;;;;;;7.60;61.00;;;;;;5056636;28;19921;-85
2022/11/14 05:54:03;;;;;;;;;;;7.70;61.00;;;;;;5058517;28;19956;-86
2022/11/14 05:56:28;;;;;;;;;;;7.70;60.80;;;;;;5056956;28;19921;-87
2022/11/14 05:58:54;;;;;;;;;;;7.70;60.60;;;;;;5067640;28;19916;-86
2022/11/14 06:01:19;;;;;;;;;;;7.70;60.50;;;;;;5068736;28;19957;-87
2022/11/14 06:03:46;;;;;;;;;;;7.70;60.40;;;;;;5070947;28;20290;-87
2022/11/14 06:06:13;;;;;;;;;;;7.70;60.30;;;;;;5061162;28;19919;-87
2022/11/14 06:08:38;;;;;;;;;;;7.70;60.10;;;;;;5062742;28;20011;-87
2022/11/14 06:11:08;;;;;;;;;;;7.70;59.80;;;;;;5059329;28;20328;-85
2022/11/14 06:13:35;;;;;;;;;;;7.70;59.60;;;;;;5062077;28;20303;-86
2022/11/14 06:16:01;;;;;;;;;;;7.70;59.50;;;;;;5059712;28;20423;-88
2022/11/14 06:18:27;;;;;;;;;;;7.60;59.30;;;;;;5059996;28;19917;-87
2022/11/14 06:20:52;;;;;;;;;;;7.60;59.40;;;;;;5055830;28;19920;-87
2022/11/14 06:23:18;;;;;;;;;;;7.60;59.40;;;;;;5059930;28;19924;-86
2022/11/14 06:25:44;;;;;;;;;;;7.50;59.50;;;;;;5069729;28;20374;-87
2022/11/14 06:28:09;;;;;;;;;;;7.50;59.50;;;;;;5060369;28;19923;-87
2022/11/14 06:30:35;;;;;;;;;;;7.50;59.50;;;;;;5060932;28;19955;-87
2022/11/14 06:33:00;;;;;;;;;;;7.50;59.50;;;;;;5063898;28;19951;-87
2022/11/14 06:35:26;;;;;;;;;;;7.50;59.40;;;;;;5065979;28;19917;-87
2022/11/14 06:37:52;;;;;;;;;;;7.40;59.10;;;;;;5068524;28;19917;-87
2022/11/14 06:40:17;;;;;;;;;;;7.40;59.20;;;;;;5064740;28;19912;-87
2022/11/14 06:42:43;;;;;;;;;;;7.40;59.20;;;;;;5055000;28;19960;-85
2022/11/14 06:45:11;;;;;;;;;;;7.40;59.10;;;;;;5067014;28;19913;-88
2022/11/14 06:47:36;;;;;;;;;;;7.30;59.00;;;;;;5060607;28;19923;-87
2022/11/14 06:50:01;;;;;;;;;;;7.30;59.10;;;;;;5054870;28;19913;-87
2022/11/14 06:52:27;;;;;;;;;;;7.30;59.10;;;;;;5066591;28;20584;-87
2022/11/14 06:54:52;;;;;;;;;;;7.30;59.00;;;;;;5062329;28;19912;-87
2022/11/14 06:57:18;;;;;;;;;;;7.30;59.00;;;;;;5057578;28;19936;-85
2022/11/14 06:59:44;;;;;;;;;;;7.30;59.20;;;;;;5049978;28;19912;-87
2022/11/14 07:02:15;;;;;;;;;;;7.40;59.70;;;;;;5064588;28;19916;-84
2022/11/14 07:04:40;;;;;;;;;;;7.40;60.00;;;;;;5060110;28;19912;-86
2022/11/14 07:07:05;;;;;;;;;;;7.50;60.40;;;;;;5061228;28;19923;-84
2022/11/14 07:09:31;;;;;;;;;;;7.70;60.80;;;;;;5053288;28;20244;-87
2022/11/14 07:11:56;;;;;;;;;;;7.80;61.20;;;;;;5053511;28;19917;-87
2022/11/14 07:14:22;;;;;;;;;;;8.00;61.60;;;;;;5055103;28;19920;-84
2022/11/14 07:16:48;;;;;;;;;;;8.20;61.80;;;;;;5056555;28;19955;-85
2022/11/14 07:19:13;;;;;;;;;;;8.30;62.00;;;;;;5070700;28;19913;-86
2022/11/14 07:21:39;;;;;;;;;;;8.60;62.20;;;;;;5063014;28;19920;-86
2022/11/14 07:24:04;;;;;;;;;;;8.80;62.20;;;;;;5065399;28;19966;-86
2022/11/14 07:26:30;;;;;;;;;;;9.00;62.40;;;;;;5063265;28;19921;-86
2022/11/14 07:28:56;;;;;;;;;;;9.30;62.70;;;;;;5073616;28;19927;-87
2022/11/14 07:31:21;;;;;;;;;;;9.50;62.80;;;;;;5059850;28;19985;-86
2022/11/14 07:33:47;;;;;;;;;;;9.80;63.00;;;;;;5065538;28;19924;-86
2022/11/14 07:36:13;;;;;;;;;;;10.00;63.20;;;;;;5058454;28;20529;-85
2022/11/14 07:38:39;;;;;;;;;;;10.30;63.30;;;;;;5065737;28;19982;-84
2022/11/14 07:41:08;;;;;;;;;;;10.60;63.30;;;;;;5066332;28;19916;-86
2022/11/14 07:43:34;;;;;;;;;;;10.90;63.30;;;;;;5058225;28;19924;-85
2022/11/14 07:46:19;;;;;;;;;;;11.20;63.10;;;;;;5055143;28;19971;-86
2022/11/14 07:48:45;;;;;;;;;;;11.40;63.10;;;;;;5063338;28;20028;-85
2022/11/14 07:51:15;;;;;;;;;;;11.70;63.20;;;;;;5063596;28;20187;-86
2022/11/14 07:53:40;;;;;;;;;;;12.00;63.30;;;;;;5067829;28;19952;-85
2022/11/14 07:56:08;;;;;;;;;;;12.30;63.20;;;;;;5073731;28;19975;-86
2022/11/14 07:58:36;;;;;;;;;;;12.60;63.20;;;;;;5072230;28;20027;-85
2022/11/14 08:01:02;;;;;;;;;;;12.80;62.90;;;;;;5071972;28;19963;-84
2022/11/14 08:03:27;;;;;;;;;;;13.10;62.90;;;;;;5072564;28;19959;-86
2022/11/14 08:06:00;;;;;;;;;;;13.30;62.80;;;;;;5069030;28;20401;-85
2022/11/14 08:08:25;;;;;;;;;;;13.50;62.70;;;;;;5072951;28;19923;-86
2022/11/14 08:10:54;;;;;;;;;;;13.70;62.40;;;;;;5070300;28;19916;-86
2022/11/14 08:13:19;;;;;;;;;;;13.90;62.20;;;;;;5061857;28;20073;-86
2022/11/14 08:15:45;;;;;;;;;;;14.00;61.90;;;;;;5090141;28;19923;-86
2022/11/14 08:18:11;;;;;;;;;;;14.20;61.70;;;;;;5090036;28;20478;-86
2022/11/14 08:20:36;;;;;;;;;;;14.40;61.60;;;;;;5062260;28;19913;-87
2022/11/14 08:23:06;;;;;;;;;;;14.50;61.00;;;;;;5068918;28;19920;-86
2022/11/14 08:25:31;;;;;;;;;;;14.60;61.00;;;;;;5068965;28;19973;-85
2022/11/14 08:27:57;;;;;;;;;;;14.70;61.30;;;;;;5071691;28;19920;-87
2022/11/14 08:30:23;;;;;;;;;;;14.90;61.10;;;;;;5076439;28;19920;-87
2022/11/14 08:32:48;;;;;;;;;;;15.00;60.80;;;;;;5070269;28;20010;-88
2022/11/14 08:35:14;;;;;;;;;;;15.20;60.80;;;;;;5058655;28;19916;-87
2022/11/14 08:37:39;;;;;;;;;;;15.30;61.00;;;;;;5065873;28;20328;-87
2022/11/14 08:40:05;;;;;;;;;;;15.50;59.90;;;;;;5080382;28;19920;-87
2022/11/14 08:42:31;;;;;;;;;;;15.60;60.20;;;;;;5066376;28;19917;-88
2022/11/14 08:44:56;;;;;;;;;;;15.70;60.20;;;;;;5060538;28;20003;-86
2022/11/14 08:47:22;;;;;;;;;;;15.80;59.70;;;;;;5049754;28;20260;-86
2022/11/14 08:49:47;;;;;;;;;;;15.90;59.00;;;;;;5065683;28;19920;-87
2022/11/14 08:52:13;;;;;;;;;;;16.00;59.60;;;;;;5063354;28;20286;-87
2022/11/14 08:54:38;;;;;;;;;;;16.00;59.20;;;;;;5063734;28;20283;-88
2022/11/14 08:57:05;;;;;;;;;;;16.10;58.50;;;;;;5055420;28;20363;-87
2022/11/14 08:59:31;;;;;;;;;;;16.10;58.30;;;;;;5060546;28;19943;-87
2022/11/14 09:01:56;;;;;;;;;;;16.20;58.10;;;;;;5052632;28;19916;-87
2022/11/14 09:04:22;;;;;;;;;;;16.20;57.90;;;;;;5065590;28;19916;-87
2022/11/14 09:06:47;;;;;;;;;;;16.20;58.10;;;;;;5051735;28;19921;-87
2022/11/14 09:09:13;;;;;;;;;;;16.20;58.20;;;;;;5058707;28;20283;-88
2022/11/14 09:11:39;;;;;;;;;;;16.30;58.40;;;;;;5060200;28;20235;-87
2022/11/14 09:14:04;;;;;;;;;;;16.30;58.90;;;;;;5059336;28;19916;-87
2022/11/14 09:16:30;;;;;;;;;;;16.50;59.60;;;;;;5062342;28;19929;-88
2022/11/14 09:18:58;;;;;;;;;;;16.60;59.50;;;;;;5072631;28;19923;-88
2022/11/14 09:21:24;;;;;;;;;;;16.70;59.50;;;;;;5059916;28;19923;-88
2022/11/14 09:23:49;;;;;;;;;;;16.80;59.10;;;;;;5058368;28;19917;-86
2022/11/14 09:26:17;;;;;;;;;;;16.90;59.40;;;;;;5054507;28;19940;-87
2022/11/14 09:28:42;;;;;;;;;;;17.10;60.00;;;;;;5060124;28;19916;-84
2022/11/14 09:31:09;;;;;;;;;;;17.20;59.80;;;;;;5058765;28;19916;-87
2022/11/14 09:33:35;;;;;;;;;;;17.30;59.00;;;;;;5067876;28;20005;-86
2022/11/14 09:36:05;;;;;;;;;;;17.40;59.30;;;;;;5047763;28;19970;-84
2022/11/14 09:38:30;;;;;;;;;;;17.50;59.50;;;;;;5061347;28;19917;-84
2022/11/14 09:41:14;;;;;;;;;;;17.70;59.00;;;;;;5062826;28;19923;-85
2022/11/14 09:43:46;;;;;;;;;;;17.70;58.50;;;;;;5052956;28;19926;-86
2022/11/14 09:46:22;;;;;;;;;;;17.70;58.10;;;;;;5055528;28;20336;-87
2022/11/14 09:48:48;;;;;;;;;;;17.80;57.80;;;;;;5059408;28;20009;-87
2022/11/14 09:51:17;;;;;;;;;;;17.80;57.90;;;;;;5058475;28;20371;-87
2022/11/14 09:53:50;;;;;;;;;;;17.80;58.20;;;;;;5064887;28;20056;-85
2022/11/14 09:56:19;;;;;;;;;;;17.90;58.40;;;;;;5056185;28;20387;-87
2022/11/14 09:58:44;;;;;;;;;;;18.00;58.20;;;;;;5063321;28;19967;-87
2022/11/14 10:01:15;;;;;;;;;;;18.10;56.50;;;;;;5058447;28;19982;-85
2022/11/14 10:03:54;;;;;;;;;;;18.20;57.60;;;;;;5064148;28;19967;-87
2022/11/14 10:06:29;;;;;;;;;;;18.30;58.00;;;;;;5056864;28;19971;-86
2022/11/14 10:08:54;;;;;;;;;;;18.50;58.20;;;;;;5057688;28;19924;-87
2022/11/14 10:11:35;;;;;;;;;;;18.60;57.50;;;;;;5058139;28;19924;-86
2022/11/14 10:14:03;;;;;;;;;;;18.80;58.70;;;;;;5050603;28;19924;-87
2022/11/14 10:16:47;;;;;;;;;;;19.00;58.50;;;;;;5053550;28;20315;-87
2022/11/14 10:19:18;;;;;;;;;;;19.20;58.50;;;;;;5056019;28;19923;-84
2022/11/14 10:21:43;;;;;;;;;;;19.30;57.80;;;;;;5061410;28;20012;-85
2022/11/14 10:24:19;;;;;;;;;;;19.50;56.80;;;;;;5053068;28;20003;-88
2022/11/14 10:27:02;;;;;;;;;;;19.50;55.90;;;;;;5050067;28;20365;-85
2022/11/14 10:29:39;;;;;;;;;;;19.70;56.50;;;;;;5059286;28;19924;-88
2022/11/14 10:32:05;;;;;;;;;;;19.80;55.80;;;;;;5050244;28;19928;-88
2022/11/14 10:34:37;;;;;;;;;;;20.00;55.60;;;;;;5060187;28;19970;-87
2022/11/14 10:37:08;;;;;;;;;;;20.00;54.70;;;;;;5053701;28;20403;-86
2022/11/14 10:39:46;;;;;;;;;;;20.00;53.90;;;;;;5055310;28;19947;-88
2022/11/14 10:42:14;;;;;;;;;;;20.00;54.10;;;;;;5069132;28;20024;-88
2022/11/14 10:45:06;;;;;;;;;;;20.20;54.20;;;;;;5049467;28;19927;-88
2022/11/14 10:47:36;;;;;;;;;;;20.20;53.70;;;;;;5054579;28;20338;-87
2022/11/14 10:50:12;;;;;;;;;;;20.30;53.40;;;;;;5054566;28;19925;-87
2022/11/14 10:52:40;;;;;;;;;;;20.20;51.80;;;;;;5051134;28;19965;-90
2022/11/14 10:55:12;;;;;;;;;;;20.10;50.30;;;;;;5058906;28;19972;-87
2022/11/14 10:57:38;;;;;;;;;;;20.30;51.30;;;;;;5053605;28;19935;-87
2022/11/14 11:00:14;;;;;;;;;;;20.30;50.80;;;;;;5062611;28;20319;-85
2022/11/14 11:02:48;;;;;;;;;;;20.30;49.60;;;;;;5059506;28;20023;-88
2022/11/14 11:05:15;;;;;;;;;;;20.30;50.20;;;;;;5065368;28;19921;-85
2022/11/14 11:13:26;;;;;;;;;;;20.50;47.40;;;;;;5054123;28;19959;-88
2022/11/14 11:15:54;;;;;;;;;;;20.50;45.70;;;;;;5061733;28;19933;-88
2022/11/14 11:18:33;;;;;;;;;;;20.50;45.50;;;;;;5059742;28;20589;-87
2022/11/14 11:21:09;;;;;;;;;;;20.50;43.70;;;;;;5058031;28;19925;-88
2022/11/14 11:23:36;;;;;;;;;;;20.40;43.10;;;;;;5049458;28;20007;-89
2022/11/14 11:26:04;;;;;;;;;;;20.40;43.30;;;;;;5059684;28;19920;-89
2022/11/14 11:28:31;;;;;;;;;;;20.40;42.50;;;;;;5061622;28;19966;-88
2022/11/14 11:30:58;;;;;;;;;;;20.40;42.40;;;;;;5061003;28;19968;-88
2022/11/14 11:33:25;;;;;;;;;;;20.40;41.60;;;;;;5062277;28;19971;-88
2022/11/14 11:35:53;;;;;;;;;;;20.40;42.00;;;;;;5061549;28;20371;-88
2022/11/14 11:38:19;;;;;;;;;;;20.50;42.80;;;;;;5059658;28;19989;-88
2022/11/14 11:40:46;;;;;;;;;;;20.50;42.10;;;;;;5059557;28;19917;-88
2022/11/14 11:43:15;;;;;;;;;;;20.50;41.40;;;;;;5051142;28;19952;-87
2022/11/14 11:45:42;;;;;;;;;;;20.50;41.00;;;;;;5051239;28;20290;-87
2022/11/14 11:48:17;;;;;;;;;;;20.40;41.20;;;;;;5061840;28;19987;-88
2022/11/14 11:50:43;;;;;;;;;;;20.30;41.10;;;;;;5056168;28;19962;-87
2022/11/14 11:53:11;;;;;;;;;;;20.20;40.30;;;;;;5048922;28;19917;-85
2022/11/14 11:55:49;;;;;;;;;;;20.10;40.30;;;;;;5059437;28;19928;-85
2022/11/14 11:58:19;;;;;;;;;;;19.90;39.40;;;;;;5054442;28;20528;-87
2022/11/14 12:00:45;;;;;;;;;;;19.80;40.30;;;;;;5049048;28;19912;-85
2022/11/14 12:03:12;;;;;;;;;;;19.50;40.30;;;;;;5057182;28;20006;-87
2022/11/14 12:05:43;;;;;;;;;;;19.20;40.60;;;;;;5050429;28;20015;-88
2022/11/14 12:08:27;;;;;;;;;;;18.80;41.00;;;;;;5047746;28;19917;-89
2022/11/14 12:10:53;;;;;;;;;;;18.50;41.60;;;;;;5066398;28;19916;-87
2022/11/14 12:13:26;;;;;;;;;;;18.20;42.40;;;;;;5061260;28;19938;-85
2022/11/14 12:16:01;;;;;;;;;;;17.90;42.50;;;;;;5052136;28;19967;-89
2022/11/14 12:18:42;;;;;;;;;;;17.70;43.10;;;;;;5051444;28;19916;-87
2022/11/14 12:21:15;;;;;;;;;;;17.50;43.80;;;;;;5058818;28;19987;-87
2022/11/14 12:24:00;;;;;;;;;;;17.40;44.40;;;;;;5067892;28;19928;-86
2022/11/14 12:26:37;;;;;;;;;;;17.30;44.40;;;;;;5068734;28;19916;-88
2022/11/14 12:29:14;;;;;;;;;;;17.20;44.40;;;;;;5070177;28;20086;-86
2022/11/14 12:31:40;;;;;;;;;;;17.10;44.70;;;;;;5068260;28;20007;-88
2022/11/14 12:34:21;;;;;;;;;;;16.90;44.40;;;;;;5069325;28;19970;-87
2022/11/14 12:36:46;;;;;;;;;;;16.90;44.90;;;;;;5069150;28;20387;-87
2022/11/14 12:39:24;;;;;;;;;;;16.80;44.80;;;;;;5067715;28;20422;-87
2022/11/14 12:41:49;;;;;;;;;;;16.80;45.00;;;;;;5069288;28;19966;-86
2022/11/14 12:44:16;;;;;;;;;;;16.70;45.30;;;;;;5063052;28;19925;-88
2022/11/14 12:47:01;;;;;;;;;;;16.70;45.30;;;;;;5063486;28;19943;-87
2022/11/14 12:49:45;;;;;;;;;;;16.70;45.50;;;;;;5067607;28;19920;-89
2022/11/14 12:52:30;;;;;;;;;;;16.70;45.60;;;;;;5059269;28;19968;-87
2022/11/14 12:54:56;;;;;;;;;;;16.60;46.10;;;;;;5065374;28;19920;-87
2022/11/14 12:57:46;;;;;;;;;;;16.60;46.20;;;;;;5067515;28;19925;-88
2022/11/14 13:00:13;;;;;;;;;;;16.60;45.90;;;;;;5051670;28;19999;-86
2022/11/14 13:02:59;;;;;;;;;;;16.50;45.80;;;;;;5052887;28;20008;-88
2022/11/14 13:05:37;;;;;;;;;;;16.60;45.90;;;;;;5063372;28;19952;-89
2022/11/14 13:08:05;;;;;;;;;;;16.60;46.00;;;;;;5067170;28;19917;-87
2022/11/14 13:10:36;;;;;;;;;;;16.60;46.30;;;;;;5065510;28;20526;-87
2022/11/14 13:22:02;;;;;;;;;;;16.60;46.50;;;;;;5062200;28;20394;-86
2022/11/14 13:24:47;;;;;;;;;;;16.50;46.50;;;;;;5055926;28;19916;-88
2022/11/14 13:27:26;;;;;;;;;;;16.50;46.80;;;;;;5068528;28;19920;-87
2022/11/14 13:29:52;;;;;;;;;;;16.60;47.10;;;;;;5073319;28;20389;-85
2022/11/14 13:32:36;;;;;;;;;;;16.60;47.20;;;;;;5067192;28;19927;-89
2022/11/14 13:35:04;;;;;;;;;;;16.60;47.10;;;;;;5066396;28;19927;-89
2022/11/14 13:37:38;;;;;;;;;;;16.60;46.90;;;;;;5068923;28;19920;-89
2022/11/14 13:40:04;;;;;;;;;;;16.60;46.90;;;;;;5058813;28;20415;-87
2022/11/14 13:42:46;;;;;;;;;;;16.60;47.10;;;;;;5068452;28;20540;-86
2022/11/14 13:45:30;;;;;;;;;;;16.60;47.10;;;;;;5063391;28;20027;-90
2022/11/14 13:48:14;;;;;;;;;;;16.60;47.20;;;;;;5064471;28;19921;-89
2022/11/14 13:50:42;;;;;;;;;;;16.70;47.30;;;;;;5057127;28;19971;-87
2022/11/14 13:53:23;;;;;;;;;;;16.60;47.40;;;;;;5071468;28;19916;-89
2022/11/14 13:55:58;;;;;;;;;;;16.70;47.60;;;;;;5060727;28;20455;-90
2022/11/14 13:58:24;;;;;;;;;;;16.60;47.40;;;;;;5054254;28;19926;-88
2022/11/14 14:00:52;;;;;;;;;;;16.70;47.60;;;;;;5059253;28;19984;-87
2022/11/14 14:03:49;;;;;;;;;;;16.70;47.60;;;;;;5070961;28;19916;-88
2022/11/14 14:06:39;;;;;;;;;;;16.60;47.60;;;;;;5072839;28;20309;-88
2022/11/14 14:09:11;;;;;;;;;;;16.60;47.60;;;;;;5070061;28;19943;-88
2022/11/14 14:11:46;;;;;;;;;;;16.60;47.70;;;;;;5063869;28;20482;-87
2022/11/14 14:14:17;;;;;;;;;;;16.60;47.70;;;;;;5071326;28;20016;-88
2022/11/14 14:17:08;;;;;;;;;;;16.60;47.70;;;;;;5069177;28;19956;-88
2022/11/14 14:19:39;;;;;;;;;;;16.60;47.80;;;;;;5069310;28;19916;-88
2022/11/14 14:22:19;;;;;;;;;;;16.50;48.00;;;;;;5069109;28;20557;-87
2022/11/14 14:24:45;;;;;;;;;;;16.50;48.00;;;;;;5067441;28;19973;-86
2022/11/14 14:27:10;;;;;;;;;;;16.50;48.00;;;;;;5068672;28;19998;-88
2022/11/14 14:29:57;;;;;;;;;;;16.50;48.20;;;;;;5066805;28;19924;-88
2022/11/14 14:32:23;;;;;;;;;;;16.40;48.30;;;;;;5067752;28;20381;-86
2022/11/14 14:34:55;;;;;;;;;;;16.30;48.30;;;;;;5061416;28;20359;-87
2022/11/14 14:37:26;;;;;;;;;;;16.30;48.30;;;;;;5061388;28;19925;-87
2022/11/14 14:39:56;;;;;;;;;;;16.30;48.50;;;;;;5064963;28;19982;-86
2022/11/14 14:42:25;;;;;;;;;;;16.20;48.50;;;;;;5065988;28;19928;-88
2022/11/14 14:44:51;;;;;;;;;;;16.20;48.50;;;;;;5052161;28;19978;-87